sensor_id;sensor_type;location;lat;lon;timestamp;P1;durP1;ratioP1;P2;durP2;ratioP2
59089;SDS011;44878;50.102;18.982;2023-03-01T00:00:37;92.30;;;71.27;;
59089;SDS011;44878;50.102;18.982;2023-03-01T00:03:20;95.10;;;76.43;;
59089;SDS011;44878;50.102;18.982;2023-03-01T00:05:46;99.07;;;76.23;;
59089;SDS011;44878;50.102;18.982;2023-03-01T00:08:12;100.47;;;78.83;;
59089;SDS011;44878;50.102;18.982;2023-03-01T00:10:38;94.27;;;75.33;;
59089;SDS011;44878;50.102;18.982;2023-03-01T00:13:04;94.83;;;77.13;;
59089;SDS011;44878;50.102;18.982;2023-03-01T00:15:31;98.40;;;79.90;;
59089;SDS011;44878;50.102;18.982;2023-03-01T00:17:57;101.40;;;82.40;;
59089;SDS011;44878;50.102;18.982;2023-03-01T00:20:23;96.63;;;79.03;;
59089;SDS011;44878;50.102;18.982;2023-03-01T00:22:48;95.20;;;78.83;;
59089;SDS011;44878;50.102;18.982;2023-03-01T00:25:14;96.70;;;82.03;;
59089;SDS011;44878;50.102;18.982;2023-03-01T00:27:40;97.63;;;81.23;;
59089;SDS011;44878;50.102;18.982;2023-03-01T00:30:06;100.77;;;85.00;;
59089;SDS011;44878;50.102;18.982;2023-03-01T00:32:32;104.43;;;87.27;;
59089;SDS011;44878;50.102;18.982;2023-03-01T00:34:58;96.03;;;83.63;;
59089;SDS011;44878;50.102;18.982;2023-03-01T00:37:24;102.53;;;86.00;;
59089;SDS011;44878;50.102;18.982;2023-03-01T00:39:50;101.10;;;85.43;;
59089;SDS011;44878;50.102;18.982;2023-03-01T00:42:16;108.90;;;90.13;;
59089;SDS011;44878;50.102;18.982;2023-03-01T00:44:42;101.77;;;86.40;;
59089;SDS011;44878;50.102;18.982;2023-03-01T00:47:08;104.37;;;85.73;;
59089;SDS011;44878;50.102;18.982;2023-03-01T00:49:34;105.63;;;86.80;;
59089;SDS011;44878;50.102;18.982;2023-03-01T00:52:00;113.17;;;92.30;;
59089;SDS011;44878;50.102;18.982;2023-03-01T00:54:26;115.40;;;96.77;;
59089;SDS011;44878;50.102;18.982;2023-03-01T00:56:52;110.23;;;91.50;;
59089;SDS011;44878;50.102;18.982;2023-03-01T00:59:18;112.70;;;90.20;;
59089;SDS011;44878;50.102;18.982;2023-03-01T01:01:43;112.43;;;94.00;;
59089;SDS011;44878;50.102;18.982;2023-03-01T01:04:11;113.70;;;92.10;;
59089;SDS011;44878;50.102;18.982;2023-03-01T01:06:38;124.00;;;102.68;;
59089;SDS011;44878;50.102;18.982;2023-03-01T01:11:30;126.60;;;104.53;;
59089;SDS011;44878;50.102;18.982;2023-03-01T01:13:57;144.43;;;116.20;;
59089;SDS011;44878;50.102;18.982;2023-03-01T01:16:24;148.50;;;118.80;;
59089;SDS011;44878;50.102;18.982;2023-03-01T01:18:51;134.77;;;110.32;;
59089;SDS011;44878;50.102;18.982;2023-03-01T01:21:17;146.17;;;115.97;;
59089;SDS011;44878;50.102;18.982;2023-03-01T01:23:44;156.10;;;128.83;;
59089;SDS011;44878;50.102;18.982;2023-03-01T01:26:11;140.07;;;113.60;;
59089;SDS011;44878;50.102;18.982;2023-03-01T01:28:37;138.77;;;113.72;;
59089;SDS011;44878;50.102;18.982;2023-03-01T01:31:03;135.13;;;110.67;;
59089;SDS011;44878;50.102;18.982;2023-03-01T01:33:29;163.50;;;133.47;;
59089;SDS011;44878;50.102;18.982;2023-03-01T01:35:55;163.90;;;128.90;;
59089;SDS011;44878;50.102;18.982;2023-03-01T01:38:21;161.03;;;131.33;;
59089;SDS011;44878;50.102;18.982;2023-03-01T01:40:48;145.60;;;118.23;;
59089;SDS011;44878;50.102;18.982;2023-03-01T01:43:19;142.15;;;116.00;;
59089;SDS011;44878;50.102;18.982;2023-03-01T01:45:45;154.53;;;126.93;;
59089;SDS011;44878;50.102;18.982;2023-03-01T01:48:12;157.23;;;129.50;;
59089;SDS011;44878;50.102;18.982;2023-03-01T01:53:15;140.07;;;118.20;;
59089;SDS011;44878;50.102;18.982;2023-03-01T01:55:43;133.32;;;109.72;;
59089;SDS011;44878;50.102;18.982;2023-03-01T01:58:11;142.40;;;115.57;;
59089;SDS011;44878;50.102;18.982;2023-03-01T02:00:38;132.43;;;110.85;;
59089;SDS011;44878;50.102;18.982;2023-03-01T02:03:07;135.63;;;115.37;;
59089;SDS011;44878;50.102;18.982;2023-03-01T02:05:36;155.97;;;126.37;;
59089;SDS011;44878;50.102;18.982;2023-03-01T02:08:04;156.73;;;125.23;;
59089;SDS011;44878;50.102;18.982;2023-03-01T02:10:31;139.80;;;115.07;;
59089;SDS011;44878;50.102;18.982;2023-03-01T02:12:59;142.53;;;121.47;;
59089;SDS011;44878;50.102;18.982;2023-03-01T02:15:25;140.77;;;114.20;;
59089;SDS011;44878;50.102;18.982;2023-03-01T02:17:52;143.85;;;120.95;;
59089;SDS011;44878;50.102;18.982;2023-03-01T02:23:03;143.60;;;117.17;;
59089;SDS011;44878;50.102;18.982;2023-03-01T02:25:47;144.23;;;117.27;;
59089;SDS011;44878;50.102;18.982;2023-03-01T02:30:42;155.57;;;123.83;;
59089;SDS011;44878;50.102;18.982;2023-03-01T02:33:29;149.20;;;120.47;;
59089;SDS011;44878;50.102;18.982;2023-03-01T02:36:01;145.67;;;118.20;;
59089;SDS011;44878;50.102;18.982;2023-03-01T02:38:29;152.10;;;127.30;;
59089;SDS011;44878;50.102;18.982;2023-03-01T02:40:55;145.57;;;119.20;;
59089;SDS011;44878;50.102;18.982;2023-03-01T02:43:22;140.57;;;118.60;;
59089;SDS011;44878;50.102;18.982;2023-03-01T02:45:49;146.82;;;122.28;;
59089;SDS011;44878;50.102;18.982;2023-03-01T02:48:16;148.27;;;121.90;;
59089;SDS011;44878;50.102;18.982;2023-03-01T02:50:50;158.73;;;135.23;;
59089;SDS011;44878;50.102;18.982;2023-03-01T02:53:22;144.07;;;117.97;;
59089;SDS011;44878;50.102;18.982;2023-03-01T02:55:48;147.67;;;121.93;;
59089;SDS011;44878;50.102;18.982;2023-03-01T02:58:15;136.80;;;109.97;;
59089;SDS011;44878;50.102;18.982;2023-03-01T03:00:42;134.60;;;109.80;;
59089;SDS011;44878;50.102;18.982;2023-03-01T03:03:16;136.80;;;113.37;;
59089;SDS011;44878;50.102;18.982;2023-03-01T03:05:42;141.90;;;115.27;;
59089;SDS011;44878;50.102;18.982;2023-03-01T03:08:08;139.20;;;112.33;;
59089;SDS011;44878;50.102;18.982;2023-03-01T03:10:36;140.47;;;115.23;;
59089;SDS011;44878;50.102;18.982;2023-03-01T03:13:10;130.93;;;110.73;;
59089;SDS011;44878;50.102;18.982;2023-03-01T03:15:36;125.10;;;104.67;;
59089;SDS011;44878;50.102;18.982;2023-03-01T03:18:03;132.70;;;106.53;;
59089;SDS011;44878;50.102;18.982;2023-03-01T03:20:29;137.63;;;113.50;;
59089;SDS011;44878;50.102;18.982;2023-03-01T03:22:56;141.70;;;118.63;;
59089;SDS011;44878;50.102;18.982;2023-03-01T03:25:24;139.87;;;114.27;;
59089;SDS011;44878;50.102;18.982;2023-03-01T03:27:51;134.10;;;111.47;;
59089;SDS011;44878;50.102;18.982;2023-03-01T03:30:22;136.00;;;111.47;;
59089;SDS011;44878;50.102;18.982;2023-03-01T03:32:49;136.10;;;112.35;;
59089;SDS011;44878;50.102;18.982;2023-03-01T03:35:28;130.20;;;108.93;;
59089;SDS011;44878;50.102;18.982;2023-03-01T03:37:58;133.80;;;111.63;;
59089;SDS011;44878;50.102;18.982;2023-03-01T03:40:47;135.17;;;107.53;;
59089;SDS011;44878;50.102;18.982;2023-03-01T03:43:17;131.00;;;108.73;;
59089;SDS011;44878;50.102;18.982;2023-03-01T03:45:44;121.47;;;100.53;;
59089;SDS011;44878;50.102;18.982;2023-03-01T03:48:10;130.23;;;106.50;;
59089;SDS011;44878;50.102;18.982;2023-03-01T03:50:36;127.20;;;103.73;;
59089;SDS011;44878;50.102;18.982;2023-03-01T03:53:03;133.97;;;106.90;;
59089;SDS011;44878;50.102;18.982;2023-03-01T03:55:29;136.70;;;112.13;;
59089;SDS011;44878;50.102;18.982;2023-03-01T03:58:00;127.80;;;104.43;;
59089;SDS011;44878;50.102;18.982;2023-03-01T04:00:35;129.07;;;108.93;;
59089;SDS011;44878;50.102;18.982;2023-03-01T04:03:02;126.90;;;105.10;;
59089;SDS011;44878;50.102;18.982;2023-03-01T04:05:27;125.90;;;103.90;;
59089;SDS011;44878;50.102;18.982;2023-03-01T04:07:54;126.13;;;106.70;;
59089;SDS011;44878;50.102;18.982;2023-03-01T04:10:30;130.60;;;107.53;;
59089;SDS011;44878;50.102;18.982;2023-03-01T04:12:56;135.40;;;113.37;;
59089;SDS011;44878;50.102;18.982;2023-03-01T04:15:22;125.47;;;105.87;;
59089;SDS011;44878;50.102;18.982;2023-03-01T04:17:50;121.50;;;102.15;;
59089;SDS011;44878;50.102;18.982;2023-03-01T04:20:24;125.25;;;101.82;;
59089;SDS011;44878;50.102;18.982;2023-03-01T04:22:57;125.90;;;101.93;;
59089;SDS011;44878;50.102;18.982;2023-03-01T04:25:24;122.50;;;103.60;;
59089;SDS011;44878;50.102;18.982;2023-03-01T04:27:50;120.30;;;98.57;;
59089;SDS011;44878;50.102;18.982;2023-03-01T04:30:16;129.23;;;107.97;;
59089;SDS011;44878;50.102;18.982;2023-03-01T04:32:42;136.10;;;111.43;;
59089;SDS011;44878;50.102;18.982;2023-03-01T04:35:08;130.20;;;107.13;;
59089;SDS011;44878;50.102;18.982;2023-03-01T04:37:34;133.37;;;110.90;;
59089;SDS011;44878;50.102;18.982;2023-03-01T04:40:00;136.00;;;111.73;;
59089;SDS011;44878;50.102;18.982;2023-03-01T04:42:33;135.83;;;113.47;;
59089;SDS011;44878;50.102;18.982;2023-03-01T04:44:59;138.37;;;113.00;;
59089;SDS011;44878;50.102;18.982;2023-03-01T04:47:25;145.50;;;122.47;;
59089;SDS011;44878;50.102;18.982;2023-03-01T04:49:50;143.50;;;119.40;;
59089;SDS011;44878;50.102;18.982;2023-03-01T04:52:16;145.47;;;117.93;;
59089;SDS011;44878;50.102;18.982;2023-03-01T04:54:42;135.00;;;113.67;;
59089;SDS011;44878;50.102;18.982;2023-03-01T04:57:08;135.30;;;112.30;;
59089;SDS011;44878;50.102;18.982;2023-03-01T04:59:34;131.43;;;109.87;;
59089;SDS011;44878;50.102;18.982;2023-03-01T05:02:01;135.32;;;112.55;;
59089;SDS011;44878;50.102;18.982;2023-03-01T05:04:27;136.20;;;112.50;;
59089;SDS011;44878;50.102;18.982;2023-03-01T05:06:53;142.17;;;114.93;;
59089;SDS011;44878;50.102;18.982;2023-03-01T05:09:19;144.37;;;119.20;;
59089;SDS011;44878;50.102;18.982;2023-03-01T05:11:45;144.60;;;119.90;;
59089;SDS011;44878;50.102;18.982;2023-03-01T05:14:11;146.17;;;118.37;;
59089;SDS011;44878;50.102;18.982;2023-03-01T05:16:37;138.63;;;113.23;;
59089;SDS011;44878;50.102;18.982;2023-03-01T05:19:03;137.00;;;111.80;;
59089;SDS011;44878;50.102;18.982;2023-03-01T05:21:43;130.27;;;109.82;;
59089;SDS011;44878;50.102;18.982;2023-03-01T05:24:30;137.67;;;114.67;;
59089;SDS011;44878;50.102;18.982;2023-03-01T05:26:56;136.80;;;116.93;;
59089;SDS011;44878;50.102;18.982;2023-03-01T05:29:23;142.27;;;117.13;;
59089;SDS011;44878;50.102;18.982;2023-03-01T05:31:55;147.73;;;131.50;;
59089;SDS011;44878;50.102;18.982;2023-03-01T05:34:24;141.57;;;119.43;;
59089;SDS011;44878;50.102;18.982;2023-03-01T05:36:51;136.40;;;119.20;;
59089;SDS011;44878;50.102;18.982;2023-03-01T05:39:24;148.63;;;126.57;;
59089;SDS011;44878;50.102;18.982;2023-03-01T05:41:51;132.17;;;114.63;;
59089;SDS011;44878;50.102;18.982;2023-03-01T05:44:17;139.90;;;122.37;;
59089;SDS011;44878;50.102;18.982;2023-03-01T05:46:43;137.17;;;117.03;;
59089;SDS011;44878;50.102;18.982;2023-03-01T05:49:10;142.13;;;119.50;;
59089;SDS011;44878;50.102;18.982;2023-03-01T05:51:36;131.17;;;111.53;;
59089;SDS011;44878;50.102;18.982;2023-03-01T05:54:02;120.53;;;102.97;;
59089;SDS011;44878;50.102;18.982;2023-03-01T05:56:28;117.67;;;101.03;;
59089;SDS011;44878;50.102;18.982;2023-03-01T05:58:54;115.60;;;97.63;;
59089;SDS011;44878;50.102;18.982;2023-03-01T06:01:20;158.43;;;137.50;;
59089;SDS011;44878;50.102;18.982;2023-03-01T06:03:46;133.47;;;113.07;;
59089;SDS011;44878;50.102;18.982;2023-03-01T06:06:12;114.77;;;94.60;;
59089;SDS011;44878;50.102;18.982;2023-03-01T06:08:37;114.13;;;97.00;;
59089;SDS011;44878;50.102;18.982;2023-03-01T06:11:03;112.60;;;98.53;;
59089;SDS011;44878;50.102;18.982;2023-03-01T06:13:30;108.57;;;94.10;;
59089;SDS011;44878;50.102;18.982;2023-03-01T06:15:56;113.83;;;98.23;;
59089;SDS011;44878;50.102;18.982;2023-03-01T06:18:22;111.13;;;96.87;;
59089;SDS011;44878;50.102;18.982;2023-03-01T06:20:54;115.80;;;99.83;;
59089;SDS011;44878;50.102;18.982;2023-03-01T06:23:20;107.10;;;94.87;;
59089;SDS011;44878;50.102;18.982;2023-03-01T06:25:46;129.33;;;115.33;;
59089;SDS011;44878;50.102;18.982;2023-03-01T06:28:12;181.73;;;162.63;;
59089;SDS011;44878;50.102;18.982;2023-03-01T06:30:38;128.37;;;113.73;;
59089;SDS011;44878;50.102;18.982;2023-03-01T06:33:03;107.73;;;93.90;;
59089;SDS011;44878;50.102;18.982;2023-03-01T06:35:30;99.60;;;85.90;;
59089;SDS011;44878;50.102;18.982;2023-03-01T06:37:56;95.07;;;80.33;;
59089;SDS011;44878;50.102;18.982;2023-03-01T06:40:23;95.80;;;81.27;;
59089;SDS011;44878;50.102;18.982;2023-03-01T06:42:49;93.87;;;80.53;;
59089;SDS011;44878;50.102;18.982;2023-03-01T06:45:16;91.77;;;80.33;;
59089;SDS011;44878;50.102;18.982;2023-03-01T06:47:41;92.70;;;79.00;;
59089;SDS011;44878;50.102;18.982;2023-03-01T06:50:08;90.67;;;75.53;;
59089;SDS011;44878;50.102;18.982;2023-03-01T06:52:33;90.38;;;77.65;;
59089;SDS011;44878;50.102;18.982;2023-03-01T06:54:59;86.05;;;75.65;;
59089;SDS011;44878;50.102;18.982;2023-03-01T06:57:26;83.30;;;74.22;;
59089;SDS011;44878;50.102;18.982;2023-03-01T06:59:52;84.57;;;75.07;;
59089;SDS011;44878;50.102;18.982;2023-03-01T07:02:18;87.38;;;75.57;;
59089;SDS011;44878;50.102;18.982;2023-03-01T07:04:44;87.18;;;76.93;;
59089;SDS011;44878;50.102;18.982;2023-03-01T07:07:10;87.13;;;77.57;;
59089;SDS011;44878;50.102;18.982;2023-03-01T07:09:36;83.72;;;74.40;;
59089;SDS011;44878;50.102;18.982;2023-03-01T07:12:02;91.32;;;81.38;;
59089;SDS011;44878;50.102;18.982;2023-03-01T07:14:29;84.50;;;75.00;;
59089;SDS011;44878;50.102;18.982;2023-03-01T07:16:55;92.53;;;82.63;;
59089;SDS011;44878;50.102;18.982;2023-03-01T07:19:21;87.43;;;78.15;;
59089;SDS011;44878;50.102;18.982;2023-03-01T07:21:47;88.25;;;79.13;;
59089;SDS011;44878;50.102;18.982;2023-03-01T07:24:13;81.80;;;72.82;;
59089;SDS011;44878;50.102;18.982;2023-03-01T07:26:39;82.63;;;73.63;;
59089;SDS011;44878;50.102;18.982;2023-03-01T07:29:05;81.65;;;73.10;;
59089;SDS011;44878;50.102;18.982;2023-03-01T07:31:31;91.45;;;81.93;;
59089;SDS011;44878;50.102;18.982;2023-03-01T07:33:57;88.90;;;79.35;;
59089;SDS011;44878;50.102;18.982;2023-03-01T07:36:23;90.38;;;80.97;;
59089;SDS011;44878;50.102;18.982;2023-03-01T07:38:50;82.18;;;73.65;;
59089;SDS011;44878;50.102;18.982;2023-03-01T07:41:16;83.20;;;74.45;;
59089;SDS011;44878;50.102;18.982;2023-03-01T07:43:42;75.38;;;67.50;;
59089;SDS011;44878;50.102;18.982;2023-03-01T07:46:07;77.55;;;69.57;;
59089;SDS011;44878;50.102;18.982;2023-03-01T07:48:33;78.63;;;70.20;;
59089;SDS011;44878;50.102;18.982;2023-03-01T07:51:00;165.15;;;147.18;;
59089;SDS011;44878;50.102;18.982;2023-03-01T07:53:26;87.03;;;77.68;;
59089;SDS011;44878;50.102;18.982;2023-03-01T07:56:04;76.60;;;68.45;;
59089;SDS011;44878;50.102;18.982;2023-03-01T07:58:31;64.60;;;57.97;;
59089;SDS011;44878;50.102;18.982;2023-03-01T08:01:01;61.75;;;54.88;;
59089;SDS011;44878;50.102;18.982;2023-03-01T08:03:27;61.72;;;55.17;;
59089;SDS011;44878;50.102;18.982;2023-03-01T08:05:52;62.38;;;55.97;;
59089;SDS011;44878;50.102;18.982;2023-03-01T08:08:18;60.10;;;54.08;;
59089;SDS011;44878;50.102;18.982;2023-03-01T08:10:44;67.57;;;60.42;;
59089;SDS011;44878;50.102;18.982;2023-03-01T08:13:10;63.53;;;56.65;;
59089;SDS011;44878;50.102;18.982;2023-03-01T08:15:35;55.90;;;49.95;;
59089;SDS011;44878;50.102;18.982;2023-03-01T08:18:01;54.17;;;48.42;;
59089;SDS011;44878;50.102;18.982;2023-03-01T08:20:27;56.88;;;50.72;;
59089;SDS011;44878;50.102;18.982;2023-03-01T08:22:53;52.47;;;46.95;;
59089;SDS011;44878;50.102;18.982;2023-03-01T08:25:19;57.03;;;50.90;;
59089;SDS011;44878;50.102;18.982;2023-03-01T08:27:45;58.55;;;51.85;;
59089;SDS011;44878;50.102;18.982;2023-03-01T08:30:10;57.38;;;51.33;;
59089;SDS011;44878;50.102;18.982;2023-03-01T08:32:37;63.30;;;53.22;;
59089;SDS011;44878;50.102;18.982;2023-03-01T08:35:03;66.57;;;59.47;;
59089;SDS011;44878;50.102;18.982;2023-03-01T08:37:29;93.47;;;83.70;;
59089;SDS011;44878;50.102;18.982;2023-03-01T08:39:56;58.90;;;52.63;;
59089;SDS011;44878;50.102;18.982;2023-03-01T08:42:22;62.20;;;55.35;;
59089;SDS011;44878;50.102;18.982;2023-03-01T08:44:48;67.95;;;56.97;;
59089;SDS011;44878;50.102;18.982;2023-03-01T08:47:14;52.30;;;46.75;;
59089;SDS011;44878;50.102;18.982;2023-03-01T08:49:39;52.45;;;46.90;;
59089;SDS011;44878;50.102;18.982;2023-03-01T08:52:05;54.25;;;48.58;;
59089;SDS011;44878;50.102;18.982;2023-03-01T08:54:31;49.95;;;44.55;;
59089;SDS011;44878;50.102;18.982;2023-03-01T08:56:57;45.72;;;40.78;;
59089;SDS011;44878;50.102;18.982;2023-03-01T08:59:24;45.60;;;40.65;;
59089;SDS011;44878;50.102;18.982;2023-03-01T09:01:50;47.50;;;41.37;;
59089;SDS011;44878;50.102;18.982;2023-03-01T09:04:16;45.75;;;40.05;;
59089;SDS011;44878;50.102;18.982;2023-03-01T09:06:42;42.28;;;37.70;;
59089;SDS011;44878;50.102;18.982;2023-03-01T09:09:12;38.13;;;34.10;;
59089;SDS011;44878;50.102;18.982;2023-03-01T09:11:40;39.42;;;35.30;;
59089;SDS011;44878;50.102;18.982;2023-03-01T09:14:06;41.25;;;35.35;;
59089;SDS011;44878;50.102;18.982;2023-03-01T09:16:32;41.45;;;36.97;;
59089;SDS011;44878;50.102;18.982;2023-03-01T09:19:01;42.28;;;34.08;;
59089;SDS011;44878;50.102;18.982;2023-03-01T09:21:27;37.67;;;33.63;;
59089;SDS011;44878;50.102;18.982;2023-03-01T09:23:53;40.75;;;35.20;;
59089;SDS011;44878;50.102;18.982;2023-03-01T09:26:19;26.08;;;23.02;;
59089;SDS011;44878;50.102;18.982;2023-03-01T09:28:48;28.58;;;25.60;;
59089;SDS011;44878;50.102;18.982;2023-03-01T09:31:14;28.05;;;24.70;;
59089;SDS011;44878;50.102;18.982;2023-03-01T09:33:40;31.33;;;27.63;;
59089;SDS011;44878;50.102;18.982;2023-03-01T09:36:11;37.83;;;33.50;;
59089;SDS011;44878;50.102;18.982;2023-03-01T09:38:37;32.97;;;29.58;;
59089;SDS011;44878;50.102;18.982;2023-03-01T09:41:09;30.27;;;26.92;;
59089;SDS011;44878;50.102;18.982;2023-03-01T09:43:48;34.95;;;28.55;;
59089;SDS011;44878;50.102;18.982;2023-03-01T09:46:20;33.00;;;29.55;;
59089;SDS011;44878;50.102;18.982;2023-03-01T09:51:15;31.25;;;27.95;;
59089;SDS011;44878;50.102;18.982;2023-03-01T09:53:42;36.50;;;32.70;;
59089;SDS011;44878;50.102;18.982;2023-03-01T09:56:29;35.33;;;31.50;;
59089;SDS011;44878;50.102;18.982;2023-03-01T10:01:34;36.60;;;32.10;;
59089;SDS011;44878;50.102;18.982;2023-03-01T10:04:09;33.90;;;30.30;;
59089;SDS011;44878;50.102;18.982;2023-03-01T10:06:36;36.45;;;31.17;;
59089;SDS011;44878;50.102;18.982;2023-03-01T10:09:05;36.83;;;32.57;;
59089;SDS011;44878;50.102;18.982;2023-03-01T10:11:37;37.47;;;30.55;;
59089;SDS011;44878;50.102;18.982;2023-03-01T10:16:35;40.55;;;32.72;;
59089;SDS011;44878;50.102;18.982;2023-03-01T10:19:04;36.13;;;32.13;;
59089;SDS011;44878;50.102;18.982;2023-03-01T10:21:30;37.33;;;31.63;;
59089;SDS011;44878;50.102;18.982;2023-03-01T10:23:59;36.83;;;30.77;;
59089;SDS011;44878;50.102;18.982;2023-03-01T10:29:04;39.00;;;31.57;;
59089;SDS011;44878;50.102;18.982;2023-03-01T10:31:46;36.10;;;30.93;;
59089;SDS011;44878;50.102;18.982;2023-03-01T10:34:17;39.23;;;32.60;;
59089;SDS011;44878;50.102;18.982;2023-03-01T10:36:44;45.97;;;38.43;;
59089;SDS011;44878;50.102;18.982;2023-03-01T10:39:11;34.90;;;28.88;;
59089;SDS011;44878;50.102;18.982;2023-03-01T10:41:44;38.40;;;31.30;;
59089;SDS011;44878;50.102;18.982;2023-03-01T10:47:02;38.00;;;32.50;;
59089;SDS011;44878;50.102;18.982;2023-03-01T10:49:27;34.80;;;31.00;;
59089;SDS011;44878;50.102;18.982;2023-03-01T10:51:53;35.00;;;31.17;;
59089;SDS011;44878;50.102;18.982;2023-03-01T10:54:20;35.20;;;31.37;;
59089;SDS011;44878;50.102;18.982;2023-03-01T10:56:51;34.22;;;29.38;;
59089;SDS011;44878;50.102;18.982;2023-03-01T10:59:24;28.88;;;25.80;;
59089;SDS011;44878;50.102;18.982;2023-03-01T11:04:35;33.93;;;27.60;;
59089;SDS011;44878;50.102;18.982;2023-03-01T11:07:02;30.53;;;26.60;;
59089;SDS011;44878;50.102;18.982;2023-03-01T11:09:30;32.93;;;27.67;;
59089;SDS011;44878;50.102;18.982;2023-03-01T11:12:03;33.50;;;29.87;;
59089;SDS011;44878;50.102;18.982;2023-03-01T11:14:33;36.10;;;31.77;;
59089;SDS011;44878;50.102;18.982;2023-03-01T11:17:02;35.60;;;31.77;;
59089;SDS011;44878;50.102;18.982;2023-03-01T11:19:28;34.78;;;31.02;;
59089;SDS011;44878;50.102;18.982;2023-03-01T11:22:05;36.73;;;32.93;;
59089;SDS011;44878;50.102;18.982;2023-03-01T11:27:27;39.57;;;31.83;;
59089;SDS011;44878;50.102;18.982;2023-03-01T11:32:39;42.90;;;38.20;;
59089;SDS011;44878;50.102;18.982;2023-03-01T11:35:24;38.13;;;34.00;;
59089;SDS011;44878;50.102;18.982;2023-03-01T11:43:09;43.27;;;34.93;;
59089;SDS011;44878;50.102;18.982;2023-03-01T11:45:40;39.57;;;34.93;;
59089;SDS011;44878;50.102;18.982;2023-03-01T11:48:24;38.87;;;34.63;;
59089;SDS011;44878;50.102;18.982;2023-03-01T11:50:54;38.23;;;34.07;;
59089;SDS011;44878;50.102;18.982;2023-03-01T11:53:48;39.17;;;32.33;;
59089;SDS011;44878;50.102;18.982;2023-03-01T12:01:59;36.50;;;32.50;;
59089;SDS011;44878;50.102;18.982;2023-03-01T12:04:36;37.40;;;33.40;;
59089;SDS011;44878;50.102;18.982;2023-03-01T12:12:27;37.70;;;33.60;;
59089;SDS011;44878;50.102;18.982;2023-03-01T12:15:02;40.13;;;35.87;;
59089;SDS011;44878;50.102;18.982;2023-03-01T12:17:34;35.87;;;31.37;;
59089;SDS011;44878;50.102;18.982;2023-03-01T12:22:50;35.40;;;30.50;;
59089;SDS011;44878;50.102;18.982;2023-03-01T12:25:20;35.63;;;31.17;;
59089;SDS011;44878;50.102;18.982;2023-03-01T12:33:52;42.00;;;34.63;;
59089;SDS011;44878;50.102;18.982;2023-03-01T12:36:27;41.50;;;35.87;;
59089;SDS011;44878;50.102;18.982;2023-03-01T12:44:01;42.70;;;37.80;;
59089;SDS011;44878;50.102;18.982;2023-03-01T12:51:23;49.20;;;38.73;;
59089;SDS011;44878;50.102;18.982;2023-03-01T12:53:50;46.43;;;37.23;;
59089;SDS011;44878;50.102;18.982;2023-03-01T12:56:20;50.97;;;40.17;;
59089;SDS011;44878;50.102;18.982;2023-03-01T13:03:51;43.83;;;36.23;;
59089;SDS011;44878;50.102;18.982;2023-03-01T13:08:52;47.53;;;37.57;;
59089;SDS011;44878;50.102;18.982;2023-03-01T13:11:21;47.57;;;38.90;;
59089;SDS011;44878;50.102;18.982;2023-03-01T13:13:48;44.75;;;36.60;;
59089;SDS011;44878;50.102;18.982;2023-03-01T13:21:41;48.30;;;40.53;;
59089;SDS011;44878;50.102;18.982;2023-03-01T13:27:11;49.53;;;39.90;;
59089;SDS011;44878;50.102;18.982;2023-03-01T13:29:49;50.07;;;40.30;;
59089;SDS011;44878;50.102;18.982;2023-03-01T13:32:26;48.03;;;41.83;;
59089;SDS011;44878;50.102;18.982;2023-03-01T13:37:40;51.75;;;43.85;;
59089;SDS011;44878;50.102;18.982;2023-03-01T13:42:48;47.03;;;41.13;;
59089;SDS011;44878;50.102;18.982;2023-03-01T13:45:22;53.88;;;43.33;;
59089;SDS011;44878;50.102;18.982;2023-03-01T13:47:52;48.17;;;40.97;;
59089;SDS011;44878;50.102;18.982;2023-03-01T13:50:25;72.67;;;59.47;;
59089;SDS011;44878;50.102;18.982;2023-03-01T13:52:59;53.17;;;41.63;;
59089;SDS011;44878;50.102;18.982;2023-03-01T13:55:31;51.13;;;42.30;;
59089;SDS011;44878;50.102;18.982;2023-03-01T13:58:01;46.93;;;41.17;;
59089;SDS011;44878;50.102;18.982;2023-03-01T14:00:30;45.90;;;39.30;;
59089;SDS011;44878;50.102;18.982;2023-03-01T14:03:09;49.73;;;38.27;;
59089;SDS011;44878;50.102;18.982;2023-03-01T14:05:36;45.43;;;37.37;;
59089;SDS011;44878;50.102;18.982;2023-03-01T14:08:03;42.88;;;36.30;;
59089;SDS011;44878;50.102;18.982;2023-03-01T14:10:35;43.43;;;36.17;;
59089;SDS011;44878;50.102;18.982;2023-03-01T14:13:17;41.10;;;36.40;;
59089;SDS011;44878;50.102;18.982;2023-03-01T14:15:59;40.00;;;30.83;;
59089;SDS011;44878;50.102;18.982;2023-03-01T14:18:32;43.30;;;32.77;;
59089;SDS011;44878;50.102;18.982;2023-03-01T14:21:08;42.80;;;34.60;;
59089;SDS011;44878;50.102;18.982;2023-03-01T14:23:34;39.60;;;31.73;;
59089;SDS011;44878;50.102;18.982;2023-03-01T14:26:01;39.17;;;31.92;;
59089;SDS011;44878;50.102;18.982;2023-03-01T14:28:28;43.03;;;30.90;;
59089;SDS011;44878;50.102;18.982;2023-03-01T14:30:56;33.97;;;29.27;;
59089;SDS011;44878;50.102;18.982;2023-03-01T14:33:23;37.55;;;29.85;;
59089;SDS011;44878;50.102;18.982;2023-03-01T14:36:06;36.40;;;28.80;;
59089;SDS011;44878;50.102;18.982;2023-03-01T14:38:39;34.57;;;27.97;;
59089;SDS011;44878;50.102;18.982;2023-03-01T14:43:43;33.47;;;27.83;;
59089;SDS011;44878;50.102;18.982;2023-03-01T14:46:25;35.40;;;28.10;;
59089;SDS011;44878;50.102;18.982;2023-03-01T14:48:53;37.57;;;28.93;;
59089;SDS011;44878;50.102;18.982;2023-03-01T14:51:20;38.72;;;29.70;;
59089;SDS011;44878;50.102;18.982;2023-03-01T14:53:46;35.03;;;26.97;;
59089;SDS011;44878;50.102;18.982;2023-03-01T14:56:13;36.37;;;25.13;;
59089;SDS011;44878;50.102;18.982;2023-03-01T14:58:39;30.02;;;24.15;;
59089;SDS011;44878;50.102;18.982;2023-03-01T15:01:05;28.77;;;24.43;;
59089;SDS011;44878;50.102;18.982;2023-03-01T15:03:35;27.87;;;24.80;;
59089;SDS011;44878;50.102;18.982;2023-03-01T15:06:03;34.17;;;25.60;;
59089;SDS011;44878;50.102;18.982;2023-03-01T15:08:29;35.67;;;25.33;;
59089;SDS011;44878;50.102;18.982;2023-03-01T15:10:59;29.83;;;24.30;;
59089;SDS011;44878;50.102;18.982;2023-03-01T15:13:28;32.93;;;24.00;;
59089;SDS011;44878;50.102;18.982;2023-03-01T15:18:51;31.23;;;24.20;;
59089;SDS011;44878;50.102;18.982;2023-03-01T15:21:18;31.97;;;24.77;;
59089;SDS011;44878;50.102;18.982;2023-03-01T15:23:55;38.30;;;29.73;;
59089;SDS011;44878;50.102;18.982;2023-03-01T15:26:23;35.20;;;24.93;;
59089;SDS011;44878;50.102;18.982;2023-03-01T15:28:50;28.58;;;23.55;;
59089;SDS011;44878;50.102;18.982;2023-03-01T15:33:42;29.27;;;23.17;;
59089;SDS011;44878;50.102;18.982;2023-03-01T15:38:58;28.33;;;22.70;;
59089;SDS011;44878;50.102;18.982;2023-03-01T15:43:51;27.70;;;23.47;;
59089;SDS011;44878;50.102;18.982;2023-03-01T15:46:30;32.13;;;25.33;;